sensor_id;sensor_type;location;lat;lon;timestamp;temperature;humidity
45489;DHT22;31236;55.026;61.042;2023-07-31T00:02:16;20.10;70.10
45489;DHT22;31236;55.026;61.042;2023-07-31T00:04:46;20.00;70.10
45489;DHT22;31236;55.026;61.042;2023-07-31T00:07:16;20.00;70.10
45489;DHT22;31236;55.026;61.042;2023-07-31T00:09:46;20.00;70.30
45489;DHT22;31236;55.026;61.042;2023-07-31T00:12:17;19.90;70.40
45489;DHT22;31236;55.026;61.042;2023-07-31T00:14:47;19.80;70.50
45489;DHT22;31236;55.026;61.042;2023-07-31T00:17:21;19.90;70.70
45489;DHT22;31236;55.026;61.042;2023-07-31T00:19:54;19.80;70.80
45489;DHT22;31236;55.026;61.042;2023-07-31T00:22:24;19.90;71.20
45489;DHT22;31236;55.026;61.042;2023-07-31T00:24:56;19.80;70.90
45489;DHT22;31236;55.026;61.042;2023-07-31T00:27:26;19.80;70.90
45489;DHT22;31236;55.026;61.042;2023-07-31T00:29:56;19.80;71.00
45489;DHT22;31236;55.026;61.042;2023-07-31T00:32:26;19.80;71.10
45489;DHT22;31236;55.026;61.042;2023-07-31T00:34:58;19.80;71.20
45489;DHT22;31236;55.026;61.042;2023-07-31T00:37:28;19.80;71.40
45489;DHT22;31236;55.026;61.042;2023-07-31T00:40:00;19.80;71.50
45489;DHT22;31236;55.026;61.042;2023-07-31T00:42:34;19.80;71.70
45489;DHT22;31236;55.026;61.042;2023-07-31T00:45:05;19.80;71.60
45489;DHT22;31236;55.026;61.042;2023-07-31T00:47:35;19.90;71.70
45489;DHT22;31236;55.026;61.042;2023-07-31T00:50:08;19.90;71.60
45489;DHT22;31236;55.026;61.042;2023-07-31T00:52:38;20.00;71.70
45489;DHT22;31236;55.026;61.042;2023-07-31T00:55:09;20.00;72.00
45489;DHT22;31236;55.026;61.042;2023-07-31T00:57:42;20.00;72.10
45489;DHT22;31236;55.026;61.042;2023-07-31T01:00:12;20.00;72.10
45489;DHT22;31236;55.026;61.042;2023-07-31T01:02:42;20.10;72.30
45489;DHT22;31236;55.026;61.042;2023-07-31T01:05:14;20.10;72.50
45489;DHT22;31236;55.026;61.042;2023-07-31T01:11:00;20.10;72.80
45489;DHT22;31236;55.026;61.042;2023-07-31T01:13:29;20.20;72.80
45489;DHT22;31236;55.026;61.042;2023-07-31T01:15:59;20.30;72.90
45489;DHT22;31236;55.026;61.042;2023-07-31T01:18:31;20.30;73.00
45489;DHT22;31236;55.026;61.042;2023-07-31T01:27:23;20.30;73.70
45489;DHT22;31236;55.026;61.042;2023-07-31T01:32:45;20.30;74.10
45489;DHT22;31236;55.026;61.042;2023-07-31T01:35:16;20.20;74.20
45489;DHT22;31236;55.026;61.042;2023-07-31T01:37:46;20.30;74.30
45489;DHT22;31236;55.026;61.042;2023-07-31T01:40:16;20.40;74.30
45489;DHT22;31236;55.026;61.042;2023-07-31T01:42:46;20.50;74.30
45489;DHT22;31236;55.026;61.042;2023-07-31T01:45:17;20.50;74.40
45489;DHT22;31236;55.026;61.042;2023-07-31T01:47:49;20.50;74.50
45489;DHT22;31236;55.026;61.042;2023-07-31T01:50:21;20.50;74.70
45489;DHT22;31236;55.026;61.042;2023-07-31T01:52:52;20.60;74.70
45489;DHT22;31236;55.026;61.042;2023-07-31T01:55:24;20.60;74.80
45489;DHT22;31236;55.026;61.042;2023-07-31T01:57:54;20.60;74.70
45489;DHT22;31236;55.026;61.042;2023-07-31T02:00:25;20.60;74.70
45489;DHT22;31236;55.026;61.042;2023-07-31T02:02:55;20.70;74.70
45489;DHT22;31236;55.026;61.042;2023-07-31T02:05:27;20.70;74.60
45489;DHT22;31236;55.026;61.042;2023-07-31T02:07:59;20.70;74.70
45489;DHT22;31236;55.026;61.042;2023-07-31T02:10:30;20.80;74.70
45489;DHT22;31236;55.026;61.042;2023-07-31T02:13:00;20.80;74.70
45489;DHT22;31236;55.026;61.042;2023-07-31T02:15:30;20.80;74.70
45489;DHT22;31236;55.026;61.042;2023-07-31T02:18:03;20.80;74.60
45489;DHT22;31236;55.026;61.042;2023-07-31T02:20:35;20.90;74.60
45489;DHT22;31236;55.026;61.042;2023-07-31T02:23:05;20.90;74.60
45489;DHT22;31236;55.026;61.042;2023-07-31T02:25:35;20.90;74.60
45489;DHT22;31236;55.026;61.042;2023-07-31T02:28:05;20.90;74.60
45489;DHT22;31236;55.026;61.042;2023-07-31T02:30:34;21.00;74.60
45489;DHT22;31236;55.026;61.042;2023-07-31T02:33:05;21.00;74.60
45489;DHT22;31236;55.026;61.042;2023-07-31T02:35:38;21.00;74.60
45489;DHT22;31236;55.026;61.042;2023-07-31T02:38:08;21.00;74.70
45489;DHT22;31236;55.026;61.042;2023-07-31T02:40:40;21.00;74.80
45489;DHT22;31236;55.026;61.042;2023-07-31T02:43:12;21.00;75.00
45489;DHT22;31236;55.026;61.042;2023-07-31T02:45:43;21.00;75.00
45489;DHT22;31236;55.026;61.042;2023-07-31T02:48:15;21.10;75.00
45489;DHT22;31236;55.026;61.042;2023-07-31T02:50:45;21.10;74.90
45489;DHT22;31236;55.026;61.042;2023-07-31T02:53:15;21.10;74.90
45489;DHT22;31236;55.026;61.042;2023-07-31T02:55:46;21.10;74.80
45489;DHT22;31236;55.026;61.042;2023-07-31T02:58:18;21.20;74.80
45489;DHT22;31236;55.026;61.042;2023-07-31T03:00:49;21.20;74.60
45489;DHT22;31236;55.026;61.042;2023-07-31T03:03:19;21.30;74.60
45489;DHT22;31236;55.026;61.042;2023-07-31T03:05:48;21.30;74.60
45489;DHT22;31236;55.026;61.042;2023-07-31T03:08:20;21.40;74.50
45489;DHT22;31236;55.026;61.042;2023-07-31T03:10:49;21.40;74.60
45489;DHT22;31236;55.026;61.042;2023-07-31T03:13:21;21.40;74.60
45489;DHT22;31236;55.026;61.042;2023-07-31T03:15:52;21.50;74.50
45489;DHT22;31236;55.026;61.042;2023-07-31T03:18:22;21.50;74.40
45489;DHT22;31236;55.026;61.042;2023-07-31T03:20:55;21.50;74.50
45489;DHT22;31236;55.026;61.042;2023-07-31T03:23:26;21.50;74.40
45489;DHT22;31236;55.026;61.042;2023-07-31T03:28:46;21.50;74.50
45489;DHT22;31236;55.026;61.042;2023-07-31T03:31:16;21.50;74.40
45489;DHT22;31236;55.026;61.042;2023-07-31T03:33:48;21.60;74.50
45489;DHT22;31236;55.026;61.042;2023-07-31T03:36:18;21.60;74.50
45489;DHT22;31236;55.026;61.042;2023-07-31T03:38:48;21.60;74.50
45489;DHT22;31236;55.026;61.042;2023-07-31T03:41:18;21.60;74.40
45489;DHT22;31236;55.026;61.042;2023-07-31T03:43:50;21.70;74.30
45489;DHT22;31236;55.026;61.042;2023-07-31T03:46:20;21.70;74.30
45489;DHT22;31236;55.026;61.042;2023-07-31T03:48:50;21.70;74.30
45489;DHT22;31236;55.026;61.042;2023-07-31T03:51:20;21.80;74.30
45489;DHT22;31236;55.026;61.042;2023-07-31T03:53:50;21.90;74.30
45489;DHT22;31236;55.026;61.042;2023-07-31T03:56:19;21.90;74.10
45489;DHT22;31236;55.026;61.042;2023-07-31T03:58:49;22.00;74.20
45489;DHT22;31236;55.026;61.042;2023-07-31T04:01:20;22.00;74.20
45489;DHT22;31236;55.026;61.042;2023-07-31T04:03:50;22.10;74.10
45489;DHT22;31236;55.026;61.042;2023-07-31T04:06:19;22.10;74.00
45489;DHT22;31236;55.026;61.042;2023-07-31T04:08:49;22.10;74.00
45489;DHT22;31236;55.026;61.042;2023-07-31T04:11:19;22.20;73.90
45489;DHT22;31236;55.026;61.042;2023-07-31T04:13:49;22.20;74.00
45489;DHT22;31236;55.026;61.042;2023-07-31T04:16:18;22.20;74.00
45489;DHT22;31236;55.026;61.042;2023-07-31T04:18:48;22.20;73.90
45489;DHT22;31236;55.026;61.042;2023-07-31T04:21:18;22.30;73.90
45489;DHT22;31236;55.026;61.042;2023-07-31T04:23:48;22.30;73.90
45489;DHT22;31236;55.026;61.042;2023-07-31T04:26:18;22.30;73.80
45489;DHT22;31236;55.026;61.042;2023-07-31T04:28:48;22.30;73.50
45489;DHT22;31236;55.026;61.042;2023-07-31T04:31:17;22.40;73.40
45489;DHT22;31236;55.026;61.042;2023-07-31T04:33:47;22.50;73.20
45489;DHT22;31236;55.026;61.042;2023-07-31T04:36:17;22.50;72.90
45489;DHT22;31236;55.026;61.042;2023-07-31T04:38:47;22.60;73.00
45489;DHT22;31236;55.026;61.042;2023-07-31T04:41:16;22.60;72.90
45489;DHT22;31236;55.026;61.042;2023-07-31T04:43:46;22.70;72.70
45489;DHT22;31236;55.026;61.042;2023-07-31T04:46:16;22.70;72.60
45489;DHT22;31236;55.026;61.042;2023-07-31T04:48:46;22.70;72.50
45489;DHT22;31236;55.026;61.042;2023-07-31T04:51:15;22.90;72.60
45489;DHT22;31236;55.026;61.042;2023-07-31T04:53:45;23.00;72.50
45489;DHT22;31236;55.026;61.042;2023-07-31T04:56:15;23.00;72.20
45489;DHT22;31236;55.026;61.042;2023-07-31T04:58:45;23.10;71.80
45489;DHT22;31236;55.026;61.042;2023-07-31T05:01:15;23.20;71.70
45489;DHT22;31236;55.026;61.042;2023-07-31T05:03:44;23.30;71.50
45489;DHT22;31236;55.026;61.042;2023-07-31T05:06:14;23.40;71.40
45489;DHT22;31236;55.026;61.042;2023-07-31T05:08:44;23.40;71.20
45489;DHT22;31236;55.026;61.042;2023-07-31T05:11:14;23.50;71.10
45489;DHT22;31236;55.026;61.042;2023-07-31T05:13:43;23.70;71.00
45489;DHT22;31236;55.026;61.042;2023-07-31T05:16:13;23.70;70.90
45489;DHT22;31236;55.026;61.042;2023-07-31T05:18:43;23.70;70.70
45489;DHT22;31236;55.026;61.042;2023-07-31T05:21:13;23.80;70.70
45489;DHT22;31236;55.026;61.042;2023-07-31T05:23:43;23.90;70.60
45489;DHT22;31236;55.026;61.042;2023-07-31T05:26:13;24.00;70.40
45489;DHT22;31236;55.026;61.042;2023-07-31T05:28:43;24.10;70.00
45489;DHT22;31236;55.026;61.042;2023-07-31T05:31:12;24.30;69.70
45489;DHT22;31236;55.026;61.042;2023-07-31T05:33:42;24.40;69.50
45489;DHT22;31236;55.026;61.042;2023-07-31T05:36:12;24.60;69.00
45489;DHT22;31236;55.026;61.042;2023-07-31T05:38:42;24.80;68.50
45489;DHT22;31236;55.026;61.042;2023-07-31T05:41:12;24.90;68.20
45489;DHT22;31236;55.026;61.042;2023-07-31T05:43:43;25.10;67.80
45489;DHT22;31236;55.026;61.042;2023-07-31T05:46:13;25.20;67.30
45489;DHT22;31236;55.026;61.042;2023-07-31T05:48:42;25.40;66.80
45489;DHT22;31236;55.026;61.042;2023-07-31T05:51:12;25.50;66.40
45489;DHT22;31236;55.026;61.042;2023-07-31T05:53:42;25.70;66.10
45489;DHT22;31236;55.026;61.042;2023-07-31T05:56:12;25.80;65.60
45489;DHT22;31236;55.026;61.042;2023-07-31T05:58:42;26.00;65.20
45489;DHT22;31236;55.026;61.042;2023-07-31T06:01:11;26.10;64.70
45489;DHT22;31236;55.026;61.042;2023-07-31T06:03:41;26.20;64.10
45489;DHT22;31236;55.026;61.042;2023-07-31T06:06:11;26.40;63.80
45489;DHT22;31236;55.026;61.042;2023-07-31T06:08:41;26.50;63.40
45489;DHT22;31236;55.026;61.042;2023-07-31T06:11:11;26.70;63.10
45489;DHT22;31236;55.026;61.042;2023-07-31T06:13:41;26.80;62.70
45489;DHT22;31236;55.026;61.042;2023-07-31T06:16:11;26.90;62.20
45489;DHT22;31236;55.026;61.042;2023-07-31T06:18:41;27.00;61.70
45489;DHT22;31236;55.026;61.042;2023-07-31T06:21:11;27.10;61.40
45489;DHT22;31236;55.026;61.042;2023-07-31T06:23:41;27.20;60.90
45489;DHT22;31236;55.026;61.042;2023-07-31T06:26:11;27.30;60.50
45489;DHT22;31236;55.026;61.042;2023-07-31T06:28:41;27.40;60.00
45489;DHT22;31236;55.026;61.042;2023-07-31T06:31:11;27.50;59.60
45489;DHT22;31236;55.026;61.042;2023-07-31T06:33:41;27.60;59.20
45489;DHT22;31236;55.026;61.042;2023-07-31T06:36:10;27.70;58.90
45489;DHT22;31236;55.026;61.042;2023-07-31T06:38:40;27.70;58.50
45489;DHT22;31236;55.026;61.042;2023-07-31T06:41:10;27.80;58.30
45489;DHT22;31236;55.026;61.042;2023-07-31T06:43:40;27.80;58.00
45489;DHT22;31236;55.026;61.042;2023-07-31T06:46:11;28.00;57.80
45489;DHT22;31236;55.026;61.042;2023-07-31T06:48:41;28.00;58.20
45489;DHT22;31236;55.026;61.042;2023-07-31T06:51:11;28.00;57.40
45489;DHT22;31236;55.026;61.042;2023-07-31T06:53:40;28.10;57.10
45489;DHT22;31236;55.026;61.042;2023-07-31T06:56:12;28.30;56.80
45489;DHT22;31236;55.026;61.042;2023-07-31T06:58:41;28.30;56.40
45489;DHT22;31236;55.026;61.042;2023-07-31T07:01:11;28.30;56.30
45489;DHT22;31236;55.026;61.042;2023-07-31T07:03:43;28.30;56.00
45489;DHT22;31236;55.026;61.042;2023-07-31T07:06:12;28.40;55.90
45489;DHT22;31236;55.026;61.042;2023-07-31T07:08:42;28.50;55.70
45489;DHT22;31236;55.026;61.042;2023-07-31T07:11:12;28.50;55.40
45489;DHT22;31236;55.026;61.042;2023-07-31T07:13:42;28.60;55.20
45489;DHT22;31236;55.026;61.042;2023-07-31T07:16:12;28.60;55.00
45489;DHT22;31236;55.026;61.042;2023-07-31T07:18:42;28.60;54.90
45489;DHT22;31236;55.026;61.042;2023-07-31T07:21:12;28.70;54.60
45489;DHT22;31236;55.026;61.042;2023-07-31T07:23:43;28.70;54.20
45489;DHT22;31236;55.026;61.042;2023-07-31T07:26:13;28.80;53.90
45489;DHT22;31236;55.026;61.042;2023-07-31T07:28:42;28.90;53.60
45489;DHT22;31236;55.026;61.042;2023-07-31T07:31:12;28.90;53.60
45489;DHT22;31236;55.026;61.042;2023-07-31T07:33:42;28.90;53.70
45489;DHT22;31236;55.026;61.042;2023-07-31T07:36:12;28.80;53.80
45489;DHT22;31236;55.026;61.042;2023-07-31T07:38:42;28.60;54.00
45489;DHT22;31236;55.026;61.042;2023-07-31T07:41:11;28.50;54.40
45489;DHT22;31236;55.026;61.042;2023-07-31T07:43:41;28.30;54.40
45489;DHT22;31236;55.026;61.042;2023-07-31T07:46:11;28.20;54.60
45489;DHT22;31236;55.026;61.042;2023-07-31T07:48:41;28.10;54.70
45489;DHT22;31236;55.026;61.042;2023-07-31T07:51:11;28.00;54.70
45489;DHT22;31236;55.026;61.042;2023-07-31T07:53:40;27.90;54.80
45489;DHT22;31236;55.026;61.042;2023-07-31T07:56:10;27.80;54.70
45489;DHT22;31236;55.026;61.042;2023-07-31T07:58:40;27.80;54.60
45489;DHT22;31236;55.026;61.042;2023-07-31T08:01:10;27.80;54.60
45489;DHT22;31236;55.026;61.042;2023-07-31T08:03:40;27.80;54.40
45489;DHT22;31236;55.026;61.042;2023-07-31T08:06:10;27.90;54.50
45489;DHT22;31236;55.026;61.042;2023-07-31T08:08:40;27.90;54.60
45489;DHT22;31236;55.026;61.042;2023-07-31T08:11:10;27.90;54.50
45489;DHT22;31236;55.026;61.042;2023-07-31T08:13:40;27.90;54.40
45489;DHT22;31236;55.026;61.042;2023-07-31T08:16:09;28.00;54.30
45489;DHT22;31236;55.026;61.042;2023-07-31T08:18:39;28.10;54.30
45489;DHT22;31236;55.026;61.042;2023-07-31T08:21:10;28.10;54.20
45489;DHT22;31236;55.026;61.042;2023-07-31T08:23:40;28.10;54.10
45489;DHT22;31236;55.026;61.042;2023-07-31T08:29:00;28.20;54.00
45489;DHT22;31236;55.026;61.042;2023-07-31T08:31:30;28.10;53.90
45489;DHT22;31236;55.026;61.042;2023-07-31T08:34:00;28.10;53.90
45489;DHT22;31236;55.026;61.042;2023-07-31T08:36:30;28.10;54.00
45489;DHT22;31236;55.026;61.042;2023-07-31T08:39:00;28.20;53.80
45489;DHT22;31236;55.026;61.042;2023-07-31T08:41:30;28.10;53.80
45489;DHT22;31236;55.026;61.042;2023-07-31T08:44:01;28.20;54.00
45489;DHT22;31236;55.026;61.042;2023-07-31T08:46:31;28.20;54.10
45489;DHT22;31236;55.026;61.042;2023-07-31T08:51:53;28.00;53.80
45489;DHT22;31236;55.026;61.042;2023-07-31T08:54:25;28.00;53.60
45489;DHT22;31236;55.026;61.042;2023-07-31T08:56:57;27.90;53.50
45489;DHT22;31236;55.026;61.042;2023-07-31T08:59:46;28.00;53.60
45489;DHT22;31236;55.026;61.042;2023-07-31T09:02:18;28.00;53.50
45489;DHT22;31236;55.026;61.042;2023-07-31T09:04:49;28.10;53.40
45489;DHT22;31236;55.026;61.042;2023-07-31T09:07:18;28.10;53.30
45489;DHT22;31236;55.026;61.042;2023-07-31T09:09:49;28.10;53.40
45489;DHT22;31236;55.026;61.042;2023-07-31T09:12:19;28.20;53.40
45489;DHT22;31236;55.026;61.042;2023-07-31T09:14:49;28.10;53.30
45489;DHT22;31236;55.026;61.042;2023-07-31T09:20:28;28.20;53.60
45489;DHT22;31236;55.026;61.042;2023-07-31T09:23:19;28.20;53.40
45489;DHT22;31236;55.026;61.042;2023-07-31T09:25:49;28.40;53.10
45489;DHT22;31236;55.026;61.042;2023-07-31T09:28:19;28.60;52.80
45489;DHT22;31236;55.026;61.042;2023-07-31T09:30:51;28.90;52.70
45489;DHT22;31236;55.026;61.042;2023-07-31T09:33:20;29.00;52.40
45489;DHT22;31236;55.026;61.042;2023-07-31T09:35:50;29.20;52.20
45489;DHT22;31236;55.026;61.042;2023-07-31T09:38:20;29.50;52.00
45489;DHT22;31236;55.026;61.042;2023-07-31T09:40:50;29.70;51.60
45489;DHT22;31236;55.026;61.042;2023-07-31T09:43:21;29.90;51.40
45489;DHT22;31236;55.026;61.042;2023-07-31T09:48:42;29.70;51.40
45489;DHT22;31236;55.026;61.042;2023-07-31T09:51:12;29.60;51.40
45489;DHT22;31236;55.026;61.042;2023-07-31T09:53:50;29.50;51.40
45489;DHT22;31236;55.026;61.042;2023-07-31T09:56:16;29.50;51.30
45489;DHT22;31236;55.026;61.042;2023-07-31T09:58:48;29.40;51.30
45489;DHT22;31236;55.026;61.042;2023-07-31T10:01:18;29.40;51.20
45489;DHT22;31236;55.026;61.042;2023-07-31T10:03:48;29.40;51.20
45489;DHT22;31236;55.026;61.042;2023-07-31T10:06:18;29.40;51.20
45489;DHT22;31236;55.026;61.042;2023-07-31T10:08:51;29.40;51.10
45489;DHT22;31236;55.026;61.042;2023-07-31T10:11:23;29.40;51.10
45489;DHT22;31236;55.026;61.042;2023-07-31T10:13:54;29.40;51.00
45489;DHT22;31236;55.026;61.042;2023-07-31T10:16:24;29.30;50.90
45489;DHT22;31236;55.026;61.042;2023-07-31T10:18:55;29.30;50.90
45489;DHT22;31236;55.026;61.042;2023-07-31T10:21:25;29.30;50.80
45489;DHT22;31236;55.026;61.042;2023-07-31T10:23:56;29.40;50.60
45489;DHT22;31236;55.026;61.042;2023-07-31T10:26:26;29.40;50.20
45489;DHT22;31236;55.026;61.042;2023-07-31T10:28:58;29.50;50.50
45489;DHT22;31236;55.026;61.042;2023-07-31T10:31:28;29.40;50.70
45489;DHT22;31236;55.026;61.042;2023-07-31T10:33:58;29.40;50.80
45489;DHT22;31236;55.026;61.042;2023-07-31T10:36:30;29.40;50.60
45489;DHT22;31236;55.026;61.042;2023-07-31T10:38:59;29.50;50.50
45489;DHT22;31236;55.026;61.042;2023-07-31T10:41:31;29.50;50.20
45489;DHT22;31236;55.026;61.042;2023-07-31T10:44:01;29.60;49.90
45489;DHT22;31236;55.026;61.042;2023-07-31T10:46:33;29.70;49.50
45489;DHT22;31236;55.026;61.042;2023-07-31T10:49:03;29.80;49.50
45489;DHT22;31236;55.026;61.042;2023-07-31T10:51:35;29.90;49.60
45489;DHT22;31236;55.026;61.042;2023-07-31T10:54:24;29.90;49.70
45489;DHT22;31236;55.026;61.042;2023-07-31T10:56:57;29.70;49.70
45489;DHT22;31236;55.026;61.042;2023-07-31T10:59:27;29.60;49.80
45489;DHT22;31236;55.026;61.042;2023-07-31T11:01:58;29.50;50.00
45489;DHT22;31236;55.026;61.042;2023-07-31T11:04:29;29.40;50.10
45489;DHT22;31236;55.026;61.042;2023-07-31T11:07:01;29.30;50.10
45489;DHT22;31236;55.026;61.042;2023-07-31T11:09:33;29.30;50.20
45489;DHT22;31236;55.026;61.042;2023-07-31T11:12:04;29.30;50.20
45489;DHT22;31236;55.026;61.042;2023-07-31T11:14:33;29.30;50.10
45489;DHT22;31236;55.026;61.042;2023-07-31T11:19:54;29.20;49.90
45489;DHT22;31236;55.026;61.042;2023-07-31T11:22:24;29.10;49.80
45489;DHT22;31236;55.026;61.042;2023-07-31T11:24:53;29.20;49.90
45489;DHT22;31236;55.026;61.042;2023-07-31T11:27:26;29.20;50.00
45489;DHT22;31236;55.026;61.042;2023-07-31T11:32:45;29.10;50.00
45489;DHT22;31236;55.026;61.042;2023-07-31T11:35:15;29.10;50.00
45489;DHT22;31236;55.026;61.042;2023-07-31T11:37:45;29.10;49.90
45489;DHT22;31236;55.026;61.042;2023-07-31T11:40:15;29.00;49.80
45489;DHT22;31236;55.026;61.042;2023-07-31T11:42:46;29.10;49.80
45489;DHT22;31236;55.026;61.042;2023-07-31T11:45:15;29.10;49.80
45489;DHT22;31236;55.026;61.042;2023-07-31T11:47:46;29.20;49.80
45489;DHT22;31236;55.026;61.042;2023-07-31T11:50:16;29.20;49.70
45489;DHT22;31236;55.026;61.042;2023-07-31T11:52:46;29.20;49.60
45489;DHT22;31236;55.026;61.042;2023-07-31T11:55:18;29.30;49.80
45489;DHT22;31236;55.026;61.042;2023-07-31T11:57:48;29.30;49.90
45489;DHT22;31236;55.026;61.042;2023-07-31T12:00:18;29.30;49.80
45489;DHT22;31236;55.026;61.042;2023-07-31T12:02:50;29.20;49.70
45489;DHT22;31236;55.026;61.042;2023-07-31T12:05:19;29.30;49.80
45489;DHT22;31236;55.026;61.042;2023-07-31T12:08:11;29.20;49.70
45489;DHT22;31236;55.026;61.042;2023-07-31T12:10:40;29.20;49.70
45489;DHT22;31236;55.026;61.042;2023-07-31T12:13:20;29.10;49.80
45489;DHT22;31236;55.026;61.042;2023-07-31T12:15:45;29.10;49.90
45489;DHT22;31236;55.026;61.042;2023-07-31T12:18:19;29.10;49.90
45489;DHT22;31236;55.026;61.042;2023-07-31T12:23:57;29.00;49.70
45489;DHT22;31236;55.026;61.042;2023-07-31T12:26:33;29.00;49.70
45489;DHT22;31236;55.026;61.042;2023-07-31T12:28:59;29.00;49.70
45489;DHT22;31236;55.026;61.042;2023-07-31T12:31:29;29.00;49.90
45489;DHT22;31236;55.026;61.042;2023-07-31T12:34:00;29.00;49.90
45489;DHT22;31236;55.026;61.042;2023-07-31T12:36:30;29.00;49.90
45489;DHT22;31236;55.026;61.042;2023-07-31T12:39:01;29.00;49.90
45489;DHT22;31236;55.026;61.042;2023-07-31T12:41:33;29.00;49.80
45489;DHT22;31236;55.026;61.042;2023-07-31T12:44:04;29.10;49.80
45489;DHT22;31236;55.026;61.042;2023-07-31T12:46:34;29.10;49.70
45489;DHT22;31236;55.026;61.042;2023-07-31T12:49:04;29.00;49.70
45489;DHT22;31236;55.026;61.042;2023-07-31T12:51:34;29.10;49.60
45489;DHT22;31236;55.026;61.042;2023-07-31T12:54:03;29.10;49.70
45489;DHT22;31236;55.026;61.042;2023-07-31T12:56:34;29.00;49.70
45489;DHT22;31236;55.026;61.042;2023-07-31T12:59:04;29.00;49.70
45489;DHT22;31236;55.026;61.042;2023-07-31T13:01:34;29.00;49.70
45489;DHT22;31236;55.026;61.042;2023-07-31T13:04:04;29.00;49.70
45489;DHT22;31236;55.026;61.042;2023-07-31T13:06:35;29.00;49.60
45489;DHT22;31236;55.026;61.042;2023-07-31T13:09:05;29.00;49.50
45489;DHT22;31236;55.026;61.042;2023-07-31T13:11:36;29.00;49.60
45489;DHT22;31236;55.026;61.042;2023-07-31T13:14:06;29.00;49.70
45489;DHT22;31236;55.026;61.042;2023-07-31T13:16:37;29.00;49.60
45489;DHT22;31236;55.026;61.042;2023-07-31T13:19:07;29.00;49.80
45489;DHT22;31236;55.026;61.042;2023-07-31T13:21:37;29.20;49.80
45489;DHT22;31236;55.026;61.042;2023-07-31T13:24:16;29.20;49.80
45489;DHT22;31236;55.026;61.042;2023-07-31T13:26:46;29.20;49.70
45489;DHT22;31236;55.026;61.042;2023-07-31T13:29:16;29.20;49.80
45489;DHT22;31236;55.026;61.042;2023-07-31T13:31:48;29.20;49.80
45489;DHT22;31236;55.026;61.042;2023-07-31T13:34:19;29.10;49.80
45489;DHT22;31236;55.026;61.042;2023-07-31T13:36:50;29.00;49.80
45489;DHT22;31236;55.026;61.042;2023-07-31T13:39:24;28.90;49.80
45489;DHT22;31236;55.026;61.042;2023-07-31T13:41:55;28.80;49.80
45489;DHT22;31236;55.026;61.042;2023-07-31T13:44:25;28.70;50.00
45489;DHT22;31236;55.026;61.042;2023-07-31T13:46:55;28.70;50.20
45489;DHT22;31236;55.026;61.042;2023-07-31T13:49:25;28.60;50.30
45489;DHT22;31236;55.026;61.042;2023-07-31T13:52:32;28.50;50.30
45489;DHT22;31236;55.026;61.042;2023-07-31T13:54:31;28.50;50.50
45489;DHT22;31236;55.026;61.042;2023-07-31T13:57:02;28.40;50.50
45489;DHT22;31236;55.026;61.042;2023-07-31T13:59:32;28.40;50.60
45489;DHT22;31236;55.026;61.042;2023-07-31T14:02:03;28.30;50.70
45489;DHT22;31236;55.026;61.042;2023-07-31T14:04:33;28.30;50.80
45489;DHT22;31236;55.026;61.042;2023-07-31T14:07:02;28.20;50.90
45489;DHT22;31236;55.026;61.042;2023-07-31T14:09:32;28.20;51.00
45489;DHT22;31236;55.026;61.042;2023-07-31T14:12:03;28.30;51.20
45489;DHT22;31236;55.026;61.042;2023-07-31T14:14:33;28.30;51.40
45489;DHT22;31236;55.026;61.042;2023-07-31T14:17:02;28.30;51.70
45489;DHT22;31236;55.026;61.042;2023-07-31T14:19:32;28.20;51.90
45489;DHT22;31236;55.026;61.042;2023-07-31T14:22:02;28.20;52.10
45489;DHT22;31236;55.026;61.042;2023-07-31T14:24:32;28.20;52.20
45489;DHT22;31236;55.026;61.042;2023-07-31T14:27:02;28.10;52.40
45489;DHT22;31236;55.026;61.042;2023-07-31T14:29:32;28.00;52.60
45489;DHT22;31236;55.026;61.042;2023-07-31T14:32:03;27.90;52.80
45489;DHT22;31236;55.026;61.042;2023-07-31T14:34:33;27.80;53.00
45489;DHT22;31236;55.026;61.042;2023-07-31T14:37:02;27.80;53.20
45489;DHT22;31236;55.026;61.042;2023-07-31T14:39:33;27.70;53.40
45489;DHT22;31236;55.026;61.042;2023-07-31T14:42:02;27.70;53.50
45489;DHT22;31236;55.026;61.042;2023-07-31T14:44:32;27.60;53.70
45489;DHT22;31236;55.026;61.042;2023-07-31T14:47:02;27.50;53.90
45489;DHT22;31236;55.026;61.042;2023-07-31T14:49:32;27.40;54.10
45489;DHT22;31236;55.026;61.042;2023-07-31T14:52:02;27.40;54.40
45489;DHT22;31236;55.026;61.042;2023-07-31T14:54:33;27.30;54.60
45489;DHT22;31236;55.026;61.042;2023-07-31T14:57:04;27.20;54.70
45489;DHT22;31236;55.026;61.042;2023-07-31T14:59:34;27.10;54.80
45489;DHT22;31236;55.026;61.042;2023-07-31T15:02:04;27.10;55.10
45489;DHT22;31236;55.026;61.042;2023-07-31T15:04:35;27.00;55.30
45489;DHT22;31236;55.026;61.042;2023-07-31T15:07:05;26.90;55.50
45489;DHT22;31236;55.026;61.042;2023-07-31T15:09:35;26.80;55.60
45489;DHT22;31236;55.026;61.042;2023-07-31T15:12:06;26.70;55.60
45489;DHT22;31236;55.026;61.042;2023-07-31T15:14:36;26.70;55.70
45489;DHT22;31236;55.026;61.042;2023-07-31T15:17:06;26.60;55.90
45489;DHT22;31236;55.026;61.042;2023-07-31T15:19:35;26.50;56.00
45489;DHT22;31236;55.026;61.042;2023-07-31T15:22:06;26.40;56.10
45489;DHT22;31236;55.026;61.042;2023-07-31T15:24:36;26.40;56.40
45489;DHT22;31236;55.026;61.042;2023-07-31T15:27:07;26.30;56.40
45489;DHT22;31236;55.026;61.042;2023-07-31T15:29:37;26.30;56.60
45489;DHT22;31236;55.026;61.042;2023-07-31T15:32:44;26.20;56.60
45489;DHT22;31236;55.026;61.042;2023-07-31T15:34:44;26.20;56.70
45489;DHT22;31236;55.026;61.042;2023-07-31T15:37:15;26.10;56.50
45489;DHT22;31236;55.026;61.042;2023-07-31T15:39:47;26.10;56.40
45489;DHT22;31236;55.026;61.042;2023-07-31T15:42:17;26.00;56.40
45489;DHT22;31236;55.026;61.042;2023-07-31T15:44:48;25.80;56.50
45489;DHT22;31236;55.026;61.042;2023-07-31T15:47:56;25.70;56.80
45489;DHT22;31236;55.026;61.042;2023-07-31T15:49:55;25.60;56.20
45489;DHT22;31236;55.026;61.042;2023-07-31T15:52:28;25.50;56.10
45489;DHT22;31236;55.026;61.042;2023-07-31T15:54:59;25.40;56.20
45489;DHT22;31236;55.026;61.042;2023-07-31T15:57:28;25.30;56.30
45489;DHT22;31236;55.026;61.042;2023-07-31T16:00:32;25.20;56.50
45489;DHT22;31236;55.026;61.042;2023-07-31T16:02:34;25.10;57.20
45489;DHT22;31236;55.026;61.042;2023-07-31T16:05:05;25.00;56.80
45489;DHT22;31236;55.026;61.042;2023-07-31T16:07:35;24.90;57.10
45489;DHT22;31236;55.026;61.042;2023-07-31T16:10:06;24.80;57.40
45489;DHT22;31236;55.026;61.042;2023-07-31T16:12:37;24.60;57.70